Time;durP1;ratioP1;P1;durP2;ratioP2;P2;SDS_P1;SDS_P2;PMS_P1;PMS_P2;Temp;Humidity;BMP_temperature;BMP_pressure;BME280_temperature;BME280_humidity;BME280_pressure;Samples;Min_cycle;Max_cycle;Signal;HPM_P1;HPM_P2
2023/03/10 00:00:47;;;;;;;43.08;29.02;;;0.80;99.90;;;;;;4967568;28;23267;-72
2023/03/10 00:03:13;;;;;;;42.75;28.17;;;0.80;99.90;;;;;;4971384;28;20054;-73
2023/03/10 00:05:39;;;;;;;45.42;29.83;;;0.80;99.90;;;;;;4972227;28;20046;-72
2023/03/10 00:08:05;;;;;;;47.92;29.35;;;0.70;99.90;;;;;;4973065;28;20403;-72
2023/03/10 00:10:31;;;;;;;46.00;29.92;;;0.70;99.90;;;;;;4972438;28;20129;-72
2023/03/10 00:12:57;;;;;;;51.78;32.25;;;0.70;99.90;;;;;;4971735;28;20125;-73
2023/03/10 00:15:23;;;;;;;46.75;29.83;;;0.70;99.90;;;;;;4971582;28;20454;-73
2023/03/10 00:17:54;;;;;;;51.33;32.70;;;0.70;99.90;;;;;;4982904;28;20047;-72
2023/03/10 00:20:21;;;;;;;48.70;32.47;;;0.70;99.90;;;;;;4971813;28;20058;-72
2023/03/10 00:22:47;;;;;;;43.90;29.52;;;0.70;99.90;;;;;;4987247;28;20872;-73
2023/03/10 00:25:14;;;;;;;54.20;33.13;;;0.70;99.90;;;;;;4979369;28;20050;-73
2023/03/10 00:27:40;;;;;;;54.20;32.03;;;0.70;99.90;;;;;;4969935;28;20085;-73
2023/03/10 00:30:07;;;;;;;50.38;32.70;;;0.70;99.90;;;;;;4991023;28;20077;-73
2023/03/10 00:32:34;;;;;;;48.88;31.35;;;0.70;99.90;;;;;;4972424;28;20058;-73
2023/03/10 00:35:00;;;;;;;48.88;32.75;;;0.70;99.90;;;;;;4971292;28;20420;-73
2023/03/10 00:37:25;;;;;;;52.55;32.55;;;0.70;99.90;;;;;;4984994;28;20081;-73
2023/03/10 00:39:52;;;;;;;44.35;29.33;;;0.70;99.90;;;;;;4972056;28;20775;-73
2023/03/10 00:42:18;;;;;;;46.90;30.55;;;0.70;99.90;;;;;;4971615;28;20086;-73
2023/03/10 00:44:44;;;;;;;46.65;31.25;;;0.70;99.90;;;;;;4979390;28;20053;-73
2023/03/10 00:47:10;;;;;;;42.85;29.83;;;0.70;99.90;;;;;;4988289;28;20133;-73
2023/03/10 00:49:35;;;;;;;44.53;28.80;;;0.70;99.90;;;;;;4987089;28;20443;-73
2023/03/10 00:52:01;;;;;;;42.10;28.77;;;0.70;99.90;;;;;;4978210;28;20049;-74
2023/03/10 00:54:27;;;;;;;43.30;29.20;;;0.70;99.90;;;;;;4982795;28;20396;-74
2023/03/10 00:56:52;;;;;;;45.08;28.33;;;0.70;99.90;;;;;;4986542;28;20718;-74
2023/03/10 00:59:18;;;;;;;44.17;27.73;;;0.70;99.90;;;;;;4970505;28;20084;-74
2023/03/10 01:01:44;;;;;;;39.05;26.70;;;0.70;99.90;;;;;;4975950;28;20045;-73
2023/03/10 01:04:17;;;;;;;42.35;28.98;;;0.70;99.90;;;;;;4968838;28;20157;-74
2023/03/10 01:06:46;;;;;;;43.60;26.42;;;0.70;99.90;;;;;;4987044;28;20062;-74
2023/03/10 01:09:11;;;;;;;;;;;0.70;99.90;;;;;;4977669;28;20062;-74
2023/03/10 01:11:37;;;;;;;37.03;26.00;;;0.70;99.90;;;;;;4974851;28;20276;-74
2023/03/10 01:14:05;;;;;;;43.60;28.40;;;0.70;99.90;;;;;;4983322;28;20046;-74
2023/03/10 01:16:31;;;;;;;43.55;28.88;;;0.70;99.90;;;;;;4987061;28;20050;-74
2023/03/10 01:18:58;;;;;;;40.35;27.20;;;0.70;99.90;;;;;;4984052;28;20046;-74
2023/03/10 01:21:29;;;;;;;45.97;27.67;;;0.70;99.90;;;;;;4973221;28;20101;-74
2023/03/10 01:23:55;;;;;;;36.95;26.25;;;0.70;99.90;;;;;;4960982;28;20070;-74
2023/03/10 01:26:22;;;;;;;37.10;25.33;;;0.70;99.90;;;;;;4976700;28;20134;-74
2023/03/10 01:28:48;;;;;;;39.97;26.35;;;0.70;99.90;;;;;;4984947;28;20509;-74
2023/03/10 01:31:14;;;;;;;41.38;26.75;;;0.70;99.90;;;;;;4970470;28;20046;-74
2023/03/10 01:33:39;;;;;;;35.33;24.02;;;0.70;99.90;;;;;;4970336;28;20054;-74
2023/03/10 01:36:32;;;;;;;40.90;26.58;;;0.70;99.90;;;;;;4983388;28;20090;-75
2023/03/10 01:38:59;;;;;;;43.20;26.27;;;0.70;99.90;;;;;;4976876;28;20527;-75
2023/03/10 01:41:25;;;;;;;41.25;26.70;;;0.70;99.90;;;;;;4986880;28;20038;-74
2023/03/10 01:43:53;;;;;;;40.20;27.17;;;0.70;99.90;;;;;;4978914;28;20043;-74
2023/03/10 01:46:36;;;;;;;46.60;29.20;;;0.80;99.90;;;;;;4985513;28;20145;-74
2023/03/10 01:49:11;;;;;;;42.25;27.15;;;0.80;99.90;;;;;;4986946;28;20053;-74
2023/03/10 01:51:40;;;;;;;44.67;28.10;;;0.70;99.90;;;;;;4974745;28;20117;-75
2023/03/10 01:54:12;;;;;;;42.53;27.77;;;0.80;99.90;;;;;;4986364;28;20054;-75
2023/03/10 01:56:39;;;;;;;38.97;26.27;;;0.80;99.90;;;;;;4957690;28;20061;-75
2023/03/10 01:59:04;;;;;;;43.60;29.88;;;0.70;99.90;;;;;;4971929;28;20415;-75
2023/03/10 02:01:31;;;;;;;38.25;26.33;;;0.80;99.90;;;;;;4973004;28;20047;-75
2023/03/10 02:04:15;;;;;;;37.88;25.38;;;0.80;99.90;;;;;;4977840;28;20086;-75
2023/03/10 02:06:42;;;;;;;39.70;27.48;;;0.80;99.90;;;;;;4981691;28;20770;-75
2023/03/10 02:09:08;;;;;;;38.55;26.48;;;0.80;99.90;;;;;;4993125;28;20340;-75
2023/03/10 02:11:35;;;;;;;44.58;28.90;;;0.80;99.90;;;;;;4984311;28;20069;-75
2023/03/10 02:14:05;;;;;;;43.15;27.33;;;0.80;99.90;;;;;;4977456;28;20043;-75
2023/03/10 02:16:31;;;;;;;45.42;28.10;;;0.80;99.90;;;;;;4962479;28;20105;-76
2023/03/10 02:18:57;;;;;;;38.95;27.10;;;0.80;99.90;;;;;;4975338;28;20085;-76
2023/03/10 02:21:39;;;;;;;44.25;29.15;;;0.80;99.90;;;;;;4964578;28;20057;-75
2023/03/10 02:24:15;;;;;;;43.53;28.83;;;0.80;99.90;;;;;;4985586;28;20062;-76
2023/03/10 02:27:03;;;;;;;48.72;32.03;;;0.80;99.90;;;;;;4989921;28;20097;-75
2023/03/10 02:29:34;;;;;;;51.15;32.53;;;0.80;99.90;;;;;;4973674;28;20086;-75
2023/03/10 02:32:01;;;;;;;53.05;33.28;;;0.80;99.90;;;;;;4974026;28;20088;-75
2023/03/10 02:34:27;;;;;;;54.42;32.40;;;0.80;99.90;;;;;;4983368;28;20038;-75
2023/03/10 02:36:53;;;;;;;51.33;33.92;;;0.80;99.90;;;;;;4976344;28;20061;-75
2023/03/10 02:39:19;;;;;;;51.22;33.72;;;0.80;99.90;;;;;;5001578;28;20590;-75
2023/03/10 02:41:45;;;;;;;54.20;34.00;;;0.80;99.90;;;;;;4980522;28;20117;-75
2023/03/10 02:44:15;;;;;;;57.95;34.67;;;0.80;99.90;;;;;;4981150;28;20063;-75
2023/03/10 02:46:41;;;;;;;58.25;36.58;;;0.80;99.90;;;;;;4980055;28;20057;-76
2023/03/10 02:49:09;;;;;;;61.53;36.95;;;0.80;99.90;;;;;;4989857;28;20054;-75
2023/03/10 02:51:39;;;;;;;59.50;38.15;;;0.80;99.90;;;;;;4977914;28;20058;-75
2023/03/10 02:54:07;;;;;;;57.95;37.60;;;0.80;99.90;;;;;;4977146;28;20133;-75
2023/03/10 02:56:33;;;;;;;61.20;37.28;;;0.80;99.90;;;;;;4988730;28;20077;-75
2023/03/10 02:59:00;;;;;;;56.90;36.50;;;0.80;99.90;;;;;;4976741;28;20050;-75
2023/03/10 03:01:26;;;;;;;60.03;35.63;;;0.80;99.90;;;;;;4978775;28;20046;-75
2023/03/10 03:03:52;;;;;;;57.45;36.00;;;0.80;99.90;;;;;;4988827;28;20046;-75
2023/03/10 03:06:18;;;;;;;52.22;35.45;;;0.80;99.90;;;;;;4972395;28;20042;-75
2023/03/10 03:08:44;;;;;;;60.20;37.15;;;0.80;99.90;;;;;;4971273;28;20046;-75
2023/03/10 03:11:09;;;;;;;67.47;39.17;;;0.80;99.90;;;;;;4983202;28;20436;-76
2023/03/10 03:13:35;;;;;;;62.45;36.28;;;0.80;99.90;;;;;;4975783;28;20522;-76
2023/03/10 03:16:01;;;;;;;54.38;36.03;;;0.80;99.90;;;;;;4989090;28;20483;-76
2023/03/10 03:18:27;;;;;;;50.92;33.05;;;0.80;99.90;;;;;;4976655;28;20038;-76
2023/03/10 03:20:52;;;;;;;51.10;33.10;;;0.80;99.90;;;;;;4971077;28;20053;-76
2023/03/10 03:23:19;;;;;;;50.85;32.75;;;0.80;99.90;;;;;;4973797;28;20142;-76
2023/03/10 03:25:44;;;;;;;51.92;32.38;;;0.80;99.90;;;;;;4979721;28;20046;-76
2023/03/10 03:28:11;;;;;;;45.92;29.92;;;0.80;99.90;;;;;;4979356;28;20058;-76
2023/03/10 03:30:37;;;;;;;41.70;27.60;;;0.80;99.90;;;;;;4979592;28;20046;-76
2023/03/10 03:33:05;;;;;;;47.53;29.67;;;0.80;99.90;;;;;;4988289;28;20042;-76
2023/03/10 03:35:34;;;;;;;49.88;30.83;;;0.80;99.90;;;;;;4972104;28;20061;-76
2023/03/10 03:38:00;;;;;;;41.10;28.55;;;0.80;99.90;;;;;;4986888;28;20575;-76
2023/03/10 03:40:28;;;;;;;41.80;25.90;;;0.80;99.90;;;;;;4990088;28;20848;-76
2023/03/10 03:42:54;;;;;;;46.58;28.50;;;0.80;99.90;;;;;;4993872;28;20046;-76
2023/03/10 03:45:23;;;;;;;37.15;25.23;;;0.80;99.90;;;;;;4976549;28;20080;-76
2023/03/10 03:47:50;;;;;;;41.25;25.48;;;0.80;99.90;;;;;;5000089;28;20061;-76
2023/03/10 03:50:18;;;;;;;39.03;25.10;;;0.80;99.90;;;;;;4975264;28;20499;-76
2023/03/10 03:52:44;;;;;;;44.65;27.30;;;0.80;99.90;;;;;;4984102;28;20042;-76
2023/03/10 03:55:13;;;;;;;42.80;26.73;;;0.80;99.90;;;;;;4971415;28;20926;-76
2023/03/10 03:57:38;;;;;;;40.70;26.50;;;0.80;99.90;;;;;;4973098;28;20112;-76
2023/03/10 04:00:07;;;;;;;37.13;24.05;;;0.80;99.90;;;;;;4969682;28;20104;-76
2023/03/10 04:02:34;;;;;;;39.17;25.10;;;0.80;99.90;;;;;;4983816;28;20201;-76
2023/03/10 04:05:00;;;;;;;37.38;24.42;;;0.80;99.90;;;;;;4972309;28;20042;-76
2023/03/10 04:07:26;;;;;;;38.65;25.10;;;0.80;99.90;;;;;;4972235;28;20077;-76
2023/03/10 04:09:52;;;;;;;39.58;24.88;;;0.80;99.90;;;;;;4987829;28;20050;-76
2023/03/10 04:12:17;;;;;;;41.28;24.83;;;0.80;99.90;;;;;;4989774;28;20070;-76
2023/03/10 04:14:43;;;;;;;36.97;24.05;;;0.80;99.90;;;;;;4986982;28;20058;-76
2023/03/10 04:17:09;;;;;;;35.50;22.65;;;0.80;99.90;;;;;;4987067;28;20093;-75
2023/03/10 04:19:35;;;;;;;35.90;24.30;;;0.80;99.90;;;;;;4968974;28;20054;-76
2023/03/10 04:22:00;;;;;;;36.17;22.27;;;0.80;99.90;;;;;;4984174;28;20058;-76
2023/03/10 04:24:26;;;;;;;34.90;22.92;;;0.80;99.90;;;;;;4971606;28;20411;-76
2023/03/10 04:26:52;;;;;;;30.30;21.05;;;0.80;99.90;;;;;;4981476;28;20097;-76
2023/03/10 04:29:17;;;;;;;29.92;21.67;;;0.80;99.90;;;;;;4966586;28;20053;-76
2023/03/10 04:31:43;;;;;;;34.03;22.05;;;0.80;99.90;;;;;;4976477;28;20399;-76
2023/03/10 04:34:09;;;;;;;32.33;21.30;;;0.80;99.90;;;;;;4977588;28;20129;-76
2023/03/10 04:36:35;;;;;;;34.40;20.20;;;0.80;99.90;;;;;;4980456;28;20050;-77
2023/03/10 04:39:01;;;;;;;36.20;22.58;;;0.80;99.90;;;;;;4976193;28;20090;-76
2023/03/10 04:41:26;;;;;;;35.47;22.45;;;0.80;99.90;;;;;;4982831;28;20108;-76
2023/03/10 04:43:52;;;;;;;33.50;21.75;;;0.80;99.90;;;;;;4962080;28;20557;-76
2023/03/10 04:46:18;;;;;;;34.47;23.15;;;0.80;99.90;;;;;;4972745;28;20069;-76
2023/03/10 04:48:44;;;;;;;37.80;23.38;;;0.80;99.90;;;;;;4987543;28;20042;-76
2023/03/10 04:51:11;;;;;;;37.28;23.08;;;0.80;99.90;;;;;;4989414;28;20166;-75
2023/03/10 04:53:38;;;;;;;35.70;22.73;;;0.80;99.90;;;;;;4984792;28;20054;-76
2023/03/10 04:56:07;;;;;;;32.90;22.77;;;0.80;99.90;;;;;;4978336;28;20046;-75
2023/03/10 04:58:34;;;;;;;35.35;24.33;;;0.80;99.90;;;;;;4973720;28;20073;-75
2023/03/10 05:00:59;;;;;;;39.97;24.90;;;0.70;99.90;;;;;;4968218;28;20142;-75
2023/03/10 05:03:25;;;;;;;38.35;25.13;;;0.70;99.90;;;;;;4968962;28;20133;-75
2023/03/10 05:05:51;;;;;;;44.03;26.40;;;0.70;99.90;;;;;;4970952;28;20399;-74
2023/03/10 05:08:17;;;;;;;41.95;25.08;;;0.70;99.90;;;;;;4962618;28;20050;-75
2023/03/10 05:10:44;;;;;;;44.03;27.15;;;0.70;99.90;;;;;;4983963;28;20038;-75
2023/03/10 05:13:11;;;;;;;39.92;24.60;;;0.70;99.90;;;;;;4971994;28;20125;-75
2023/03/10 05:15:41;;;;;;;45.17;27.33;;;0.70;99.90;;;;;;4986701;28;20459;-75
2023/03/10 05:18:09;;;;;;;44.90;27.75;;;0.70;99.90;;;;;;4969728;28;20510;-75
2023/03/10 05:20:35;;;;;;;43.20;27.17;;;0.80;99.90;;;;;;4983277;28;20081;-75
2023/03/10 05:23:01;;;;;;;55.38;28.67;;;0.70;99.90;;;;;;4971048;28;20061;-74
2023/03/10 05:25:27;;;;;;;47.45;30.83;;;0.70;99.90;;;;;;4988680;28;20515;-74
2023/03/10 05:27:53;;;;;;;51.75;28.35;;;0.70;99.90;;;;;;4984307;28;20480;-74
2023/03/10 05:30:19;;;;;;;52.22;30.20;;;0.70;99.90;;;;;;4976186;28;20422;-74
2023/03/10 05:32:45;;;;;;;49.70;29.38;;;0.70;99.90;;;;;;4986006;28;20116;-74
2023/03/10 05:35:11;;;;;;;49.33;31.38;;;0.70;99.90;;;;;;4970486;28;20086;-74
2023/03/10 05:37:42;;;;;;;50.58;30.73;;;0.60;99.90;;;;;;4974418;28;20407;-74
2023/03/10 05:40:14;;;;;;;53.38;31.10;;;0.70;99.90;;;;;;4987525;28;20535;-74
2023/03/10 05:42:40;;;;;;;57.40;33.63;;;0.70;99.90;;;;;;4971967;28;20050;-74
2023/03/10 05:45:09;;;;;;;56.67;32.45;;;0.70;99.90;;;;;;4986030;28;20058;-74
2023/03/10 05:47:34;;;;;;;60.08;33.25;;;0.70;99.90;;;;;;4971100;28;20047;-74
2023/03/10 05:50:00;;;;;;;58.10;35.25;;;0.70;99.90;;;;;;4967381;28;20061;-74
2023/03/10 05:52:26;;;;;;;58.00;35.58;;;0.70;99.90;;;;;;4978858;28;20474;-74
2023/03/10 05:54:52;;;;;;;58.85;37.92;;;0.80;99.90;;;;;;4982994;28;20561;-74
2023/03/10 05:57:18;;;;;;;68.97;39.65;;;0.70;99.90;;;;;;4983834;28;20046;-74
2023/03/10 05:59:43;;;;;;;63.83;39.92;;;0.70;99.90;;;;;;4983839;28;20381;-75
2023/03/10 06:02:09;;;;;;;70.55;41.78;;;0.70;99.90;;;;;;4971717;28;20074;-75
2023/03/10 06:04:36;;;;;;;79.47;42.38;;;0.70;99.90;;;;;;4973180;28;20086;-75
2023/03/10 06:07:02;;;;;;;80.95;43.60;;;0.70;99.90;;;;;;4977439;28;20050;-74
2023/03/10 06:09:29;;;;;;;77.03;43.60;;;0.80;99.90;;;;;;4977779;28;20122;-75
2023/03/10 06:11:56;;;;;;;75.72;43.40;;;0.70;99.90;;;;;;4988197;28;20082;-74
2023/03/10 06:14:22;;;;;;;84.68;46.92;;;0.70;99.90;;;;;;4984478;28;20086;-74
2023/03/10 06:16:50;;;;;;;88.35;48.20;;;0.70;99.90;;;;;;4988332;28;20507;-74
2023/03/10 06:19:20;;;;;;;87.70;46.00;;;0.70;99.90;;;;;;4971415;28;20129;-75
2023/03/10 06:21:46;;;;;;;82.18;48.03;;;0.70;99.90;;;;;;4968447;28;20113;-74
2023/03/10 06:24:12;;;;;;;83.20;47.38;;;0.70;99.90;;;;;;4960066;28;20095;-75
2023/03/10 06:26:38;;;;;;;86.20;48.88;;;0.70;99.90;;;;;;4976356;28;20157;-75
2023/03/10 06:29:04;;;;;;;86.97;48.03;;;0.70;99.90;;;;;;4988718;28;20104;-74
2023/03/10 06:31:30;;;;;;;86.03;49.08;;;0.70;99.90;;;;;;4970870;28;20042;-75
2023/03/10 06:33:56;;;;;;;80.82;46.15;;;0.70;99.90;;;;;;4980112;28;20050;-74
2023/03/10 06:36:24;;;;;;;82.10;45.92;;;0.70;99.90;;;;;;4989090;28;20045;-75
2023/03/10 06:38:50;;;;;;;84.15;46.90;;;0.70;99.90;;;;;;4974256;28;20593;-75
2023/03/10 06:41:16;;;;;;;73.78;43.40;;;0.80;99.90;;;;;;5001083;28;20042;-74
2023/03/10 06:43:42;;;;;;;80.15;45.45;;;0.80;99.90;;;;;;4976028;28;20572;-75
2023/03/10 06:46:10;;;;;;;77.43;42.53;;;0.80;99.90;;;;;;4967557;28;20076;-74
2023/03/10 06:48:37;;;;;;;75.57;46.13;;;0.80;99.90;;;;;;4979093;28;20419;-74
2023/03/10 06:51:08;;;;;;;71.88;41.97;;;0.80;99.90;;;;;;4977128;28;20050;-74
2023/03/10 06:53:33;;;;;;;76.68;43.22;;;0.80;99.90;;;;;;4973683;28;20117;-74
2023/03/10 06:56:05;;;;;;;70.95;41.63;;;0.80;99.90;;;;;;4989094;28;20130;-74
2023/03/10 06:58:36;;;;;;;74.15;41.85;;;0.80;99.90;;;;;;4987100;28;20046;-73
2023/03/10 07:01:02;;;;;;;71.85;40.40;;;0.90;99.90;;;;;;4985165;28;20066;-74
2023/03/10 07:03:28;;;;;;;73.38;41.75;;;0.80;99.90;;;;;;4974378;28;20045;-73
2023/03/10 07:05:55;;;;;;;69.03;40.83;;;0.90;99.90;;;;;;4976308;28;20385;-74
2023/03/10 07:08:22;;;;;;;69.25;39.58;;;0.80;99.90;;;;;;4970357;28;20054;-74
2023/03/10 07:10:48;;;;;;;67.13;40.45;;;0.90;99.90;;;;;;4965641;28;20042;-74
2023/03/10 07:13:16;;;;;;;56.63;37.20;;;0.90;99.90;;;;;;4980899;28;20646;-74
2023/03/10 07:15:43;;;;;;;65.82;38.50;;;0.90;99.90;;;;;;4965438;28;20137;-74
2023/03/10 07:18:10;;;;;;;62.33;37.78;;;0.90;99.90;;;;;;4975446;28;20141;-75
2023/03/10 07:20:39;;;;;;;62.83;37.90;;;0.90;99.90;;;;;;4964763;28;20399;-73
2023/03/10 07:23:04;;;;;;;56.03;34.45;;;0.90;99.90;;;;;;4981600;28;20061;-73
2023/03/10 07:25:33;;;;;;;54.95;37.47;;;0.90;99.90;;;;;;4969942;28;20054;-74
2023/03/10 07:27:58;;;;;;;56.97;36.03;;;0.90;99.90;;;;;;4962761;28;20470;-73
2023/03/10 07:30:24;;;;;;;57.35;36.50;;;0.90;99.90;;;;;;4970493;28;20124;-73
2023/03/10 07:32:51;;;;;;;51.60;31.88;;;1.00;99.90;;;;;;4970598;28;20629;-73
2023/03/10 07:35:17;;;;;;;56.85;36.70;;;0.90;99.90;;;;;;4971596;28;20039;-73
2023/03/10 07:37:43;;;;;;;60.30;36.30;;;1.00;99.90;;;;;;4970112;28;20054;-73
2023/03/10 07:40:10;;;;;;;56.55;35.90;;;0.90;99.90;;;;;;4981654;28;20087;-74
2023/03/10 07:42:35;;;;;;;58.10;35.38;;;0.90;99.90;;;;;;4970410;28;20093;-73
2023/03/10 07:45:02;;;;;;;57.47;36.60;;;0.90;99.90;;;;;;4987348;28;20163;-74
2023/03/10 07:47:28;;;;;;;58.90;35.45;;;0.90;99.90;;;;;;4978221;28;20053;-74
2023/03/10 07:49:53;;;;;;;54.70;33.92;;;1.00;99.90;;;;;;4982169;28;20046;-74
2023/03/10 07:52:19;;;;;;;57.50;34.70;;;1.00;99.90;;;;;;4971970;28;20042;-74
2023/03/10 07:54:45;;;;;;;57.85;35.85;;;1.00;99.90;;;;;;4988828;28;20512;-74
2023/03/10 07:57:12;;;;;;;58.25;35.70;;;1.00;99.90;;;;;;4988453;28;20057;-75
2023/03/10 07:59:39;;;;;;;54.95;34.10;;;1.00;99.90;;;;;;4970748;28;20377;-75
2023/03/10 08:02:05;;;;;;;58.63;34.15;;;1.00;99.90;;;;;;4971858;28;20141;-75
2023/03/10 08:04:31;;;;;;;55.65;33.90;;;1.00;99.90;;;;;;4971784;28;20038;-75
2023/03/10 08:07:00;;;;;;;55.80;32.97;;;1.00;99.90;;;;;;4971563;28;20088;-74
2023/03/10 08:09:29;;;;;;;56.72;35.95;;;1.00;99.90;;;;;;4971630;28;20504;-74
2023/03/10 08:11:57;;;;;;;54.30;35.45;;;1.00;99.90;;;;;;4972340;28;20050;-74
2023/03/10 08:14:23;;;;;;;52.35;34.22;;;1.00;99.90;;;;;;4968280;28;20104;-74
2023/03/10 08:16:51;;;;;;;53.03;35.45;;;1.00;99.90;;;;;;4987031;28;20492;-74
2023/03/10 08:19:17;;;;;;;53.97;33.70;;;1.00;99.90;;;;;;4968040;28;20046;-74
2023/03/10 08:21:42;;;;;;;52.28;33.67;;;1.00;99.90;;;;;;4961893;28;20053;-74
2023/03/10 08:24:09;;;;;;;54.13;34.78;;;1.10;99.90;;;;;;4964516;28;20841;-74
2023/03/10 08:26:35;;;;;;;52.25;33.25;;;1.10;99.90;;;;;;4980181;28;20625;-75
2023/03/10 08:29:00;;;;;;;53.00;33.42;;;1.10;99.90;;;;;;4966214;28;20050;-74
2023/03/10 08:31:26;;;;;;;50.75;33.25;;;1.10;99.90;;;;;;4971687;28;20085;-74
2023/03/10 08:33:56;;;;;;;55.15;33.67;;;1.10;99.90;;;;;;4968175;28;20045;-74
2023/03/10 08:36:25;;;;;;;56.40;35.53;;;1.10;99.90;;;;;;4979503;28;20047;-74
2023/03/10 08:38:52;;;;;;;56.00;33.63;;;1.10;99.90;;;;;;4969646;28;20108;-74
2023/03/10 08:41:31;;;;;;;54.70;34.20;;;1.10;99.90;;;;;;4992888;28;20778;-74
2023/03/10 08:43:57;;;;;;;;;;;1.10;99.90;;;;;;4971995;28;20333;-74
2023/03/10 08:46:25;;;;;;;53.72;33.92;;;1.10;99.90;;;;;;4970745;28;19925;-74
2023/03/10 08:48:51;;;;;;;50.10;34.72;;;1.10;99.90;;;;;;4970925;28;20073;-74
2023/03/10 08:51:18;;;;;;;50.85;33.20;;;1.10;99.90;;;;;;4970958;28;20508;-74
2023/03/10 08:53:46;;;;;;;51.20;33.90;;;1.10;99.90;;;;;;4971628;28;20492;-74
2023/03/10 08:56:13;;;;;;;55.45;34.50;;;1.10;99.90;;;;;;4969380;28;20086;-74
2023/03/10 08:58:39;;;;;;;50.90;31.77;;;1.10;99.90;;;;;;4987857;28;20057;-74
2023/03/10 09:01:05;;;;;;;52.33;32.80;;;1.20;99.90;;;;;;4971397;28;20050;-75
2023/03/10 09:03:42;;;;;;;45.45;31.83;;;1.10;99.90;;;;;;4987713;28;20038;-75
2023/03/10 09:06:08;;;;;;;53.22;33.83;;;1.10;99.90;;;;;;4967649;28;20838;-74
2023/03/10 09:08:34;;;;;;;48.67;30.02;;;1.10;99.90;;;;;;4966516;28;20133;-75
2023/03/10 09:11:00;;;;;;;46.33;31.58;;;1.10;99.90;;;;;;4987517;28;20038;-74
2023/03/10 09:13:26;;;;;;;49.67;32.97;;;1.20;99.90;;;;;;4996664;28;20054;-75
2023/03/10 09:15:52;;;;;;;54.50;33.40;;;1.20;99.90;;;;;;4982279;28;20121;-74
2023/03/10 09:18:18;;;;;;;46.63;32.85;;;1.20;99.90;;;;;;4981006;28;20830;-74
2023/03/10 09:20:44;;;;;;;48.90;31.40;;;1.20;99.90;;;;;;4981279;28;20046;-74
2023/03/10 09:23:12;;;;;;;44.75;30.30;;;1.20;99.90;;;;;;4977417;28;20074;-74
2023/03/10 09:25:40;;;;;;;44.50;29.60;;;1.20;99.90;;;;;;4980623;28;20138;-74
2023/03/10 09:28:07;;;;;;;46.33;29.38;;;1.20;99.90;;;;;;4987492;28;20500;-75
2023/03/10 09:30:38;;;;;;;49.97;33.70;;;1.20;99.90;;;;;;4973286;28;20049;-74
2023/03/10 09:33:06;;;;;;;47.53;30.83;;;1.20;99.90;;;;;;4986789;28;20054;-74
2023/03/10 09:35:32;;;;;;;52.03;32.72;;;1.20;99.90;;;;;;4969018;28;20133;-75
2023/03/10 09:37:58;;;;;;;43.85;31.15;;;1.20;99.90;;;;;;4970833;28;20153;-74
2023/03/10 09:40:24;;;;;;;47.17;31.73;;;1.20;99.90;;;;;;4976244;28;20058;-74
2023/03/10 09:43:03;;;;;;;52.10;31.88;;;1.20;99.90;;;;;;4973900;28;20399;-74
2023/03/10 09:45:44;;;;;;;44.45;31.45;;;1.20;99.90;;;;;;4971979;28;20054;-74
2023/03/10 09:48:48;;;;;;;47.47;30.50;;;1.20;99.90;;;;;;4970961;28;20069;-74
2023/03/10 09:51:22;;;;;;;48.33;30.70;;;1.20;99.90;;;;;;4945842;28;20145;-74
2023/03/10 09:54:16;;;;;;;45.63;31.38;;;1.20;99.90;;;;;;4970857;28;20435;-74
2023/03/10 09:56:41;;;;;;;47.45;31.85;;;1.30;99.90;;;;;;4970879;28;20114;-74
2023/03/10 09:59:23;;;;;;;47.38;32.47;;;1.20;99.90;;;;;;4970334;28;20133;-74
2023/03/10 10:01:51;;;;;;;44.58;30.23;;;1.30;99.90;;;;;;4969350;28;20042;-74
2023/03/10 10:04:38;;;;;;;51.25;32.80;;;1.30;99.90;;;;;;4970918;28;20140;-74
2023/03/10 10:07:14;;;;;;;50.53;33.00;;;1.30;99.90;;;;;;4968664;28;20078;-74
2023/03/10 10:09:46;;;;;;;50.33;33.45;;;1.30;99.90;;;;;;4970752;28;20496;-74
2023/03/10 10:12:22;;;;;;;55.53;33.03;;;1.30;99.90;;;;;;4974458;28;20046;-74
2023/03/10 10:14:50;;;;;;;54.40;33.67;;;1.30;99.90;;;;;;4987486;28;20479;-74
2023/03/10 10:17:16;;;;;;;56.63;35.08;;;1.20;99.90;;;;;;4971482;28;20062;-74
2023/03/10 10:19:44;;;;;;;51.00;33.67;;;1.30;99.90;;;;;;4971678;28;20166;-74
2023/03/10 10:22:19;;;;;;;54.63;33.05;;;1.30;99.90;;;;;;4977906;28;20062;-74
2023/03/10 10:25:22;;;;;;;53.75;33.58;;;1.30;99.90;;;;;;4971569;28;20492;-74
2023/03/10 10:27:52;;;;;;;50.72;31.35;;;1.30;99.90;;;;;;4959676;28;20467;-74
2023/03/10 10:30:27;;;;;;;62.15;35.45;;;1.30;99.90;;;;;;4971760;28;20054;-74
2023/03/10 10:33:05;;;;;;;52.30;34.65;;;1.30;99.90;;;;;;4968627;28;20061;-74
2023/03/10 10:35:44;;;;;;;52.55;34.35;;;1.30;99.90;;;;;;4985775;28;20492;-74
2023/03/10 10:38:10;;;;;;;53.83;35.17;;;1.30;99.90;;;;;;4971346;28;20093;-74
2023/03/10 10:41:01;;;;;;;54.13;33.90;;;1.20;99.90;;;;;;4978487;28;20050;-74
2023/03/10 10:43:27;;;;;;;49.85;34.25;;;1.30;99.90;;;;;;4968903;28;20416;-74
2023/03/10 10:45:57;;;;;;;52.80;34.13;;;1.30;99.90;;;;;;4987922;28;20050;-74
2023/03/10 10:48:41;;;;;;;57.20;37.33;;;1.30;99.90;;;;;;4982302;28;20100;-74
2023/03/10 10:51:29;;;;;;;55.08;34.92;;;1.30;99.90;;;;;;4987456;28;20050;-74
2023/03/10 10:53:57;;;;;;;55.87;34.23;;;1.30;99.90;;;;;;4974447;28;20096;-75
2023/03/10 10:56:23;;;;;;;53.05;33.85;;;1.30;99.90;;;;;;4990501;28;20050;-75
2023/03/10 10:59:06;;;;;;;49.97;33.97;;;1.30;99.90;;;;;;4974906;28;20081;-74
2023/03/10 11:02:02;;;;;;;54.67;34.40;;;1.30;99.90;;;;;;4995790;28;20104;-75
2023/03/10 11:04:41;;;;;;;57.50;33.88;;;1.30;99.90;;;;;;4966241;28;20511;-75
2023/03/10 11:07:16;;;;;;;48.13;34.00;;;1.30;99.90;;;;;;4977719;28;20481;-74
2023/03/10 11:09:42;;;;;;;50.83;34.20;;;1.30;99.90;;;;;;4974053;28;20586;-75
2023/03/10 11:12:31;;;;;;;50.28;32.08;;;1.30;99.90;;;;;;4974423;28;20109;-75
2023/03/10 11:15:30;;;;;;;61.83;35.50;;;1.30;99.90;;;;;;4985191;28;20048;-75
2023/03/10 11:18:11;;;;;;;51.47;34.88;;;1.30;99.90;;;;;;4974408;28;20077;-75
2023/03/10 11:21:11;;;;;;;50.22;33.45;;;1.30;99.90;;;;;;4983604;28;20510;-75
2023/03/10 11:23:44;;;;;;;50.88;32.03;;;1.30;99.90;;;;;;4990864;28;20507;-76
2023/03/10 11:26:19;;;;;;;49.03;31.52;;;1.30;99.90;;;;;;4973700;28;20569;-75
2023/03/10 11:28:47;;;;;;;50.33;33.17;;;1.30;99.90;;;;;;4973394;28;20514;-75
2023/03/10 11:31:19;;;;;;;;;;;1.30;99.90;;;;;;4981145;28;20562;-75
2023/03/10 11:34:12;;;;;;;53.60;33.40;;;1.30;99.90;;;;;;4975309;28;20387;-75
2023/03/10 11:36:56;;;;;;;48.22;32.13;;;1.30;99.90;;;;;;4976744;28;20038;-75
2023/03/10 11:39:47;;;;;;;48.40;31.55;;;1.30;99.90;;;;;;4972209;28;20050;-75
2023/03/10 11:42:43;;;;;;;45.70;30.13;;;1.30;99.90;;;;;;4979685;28;20134;-75
2023/03/10 11:45:33;;;;;;;54.40;32.47;;;1.30;99.90;;;;;;4961115;28;20050;-74
2023/03/10 11:48:02;;;;;;;48.40;31.92;;;1.30;99.90;;;;;;4973520;28;20593;-75
2023/03/10 11:50:58;;;;;;;54.38;33.47;;;1.30;99.90;;;;;;4973590;28;20047;-75
2023/03/10 11:53:52;;;;;;;54.58;34.53;;;1.30;99.90;;;;;;4970258;28;20123;-75
2023/03/10 11:56:21;;;;;;;53.17;33.88;;;1.30;99.90;;;;;;4989243;28;20046;-75
2023/03/10 11:59:17;;;;;;;52.15;32.42;;;1.30;99.90;;;;;;4980374;28;20476;-75
2023/03/10 12:01:48;;;;;;;52.13;32.92;;;1.30;99.90;;;;;;4971124;28;20086;-76
2023/03/10 12:04:39;;;;;;;52.83;33.50;;;1.30;99.90;;;;;;4976123;28;20572;-76
2023/03/10 12:07:23;;;;;;;63.72;37.60;;;1.30;99.90;;;;;;4974031;28;20177;-76
2023/03/10 12:10:08;;;;;;;63.85;34.83;;;1.30;99.90;;;;;;4972214;28;20058;-76
2023/03/10 12:12:37;;;;;;;55.65;33.35;;;1.20;99.90;;;;;;4973235;28;20058;-76
2023/03/10 12:15:32;;;;;;;57.65;34.50;;;1.20;99.90;;;;;;4972232;28;20066;-76
2023/03/10 12:17:59;;;;;;;51.75;34.47;;;1.20;99.90;;;;;;4973297;28;20066;-76
2023/03/10 12:20:30;;;;;;;54.17;33.33;;;1.10;99.90;;;;;;4985162;28;20074;-76
2023/03/10 12:23:25;;;;;;;57.25;33.95;;;1.10;99.90;;;;;;4967194;28;20135;-76
2023/03/10 12:25:51;;;;;;;59.15;36.58;;;1.10;99.90;;;;;;4975211;28;20504;-76
2023/03/10 12:28:25;;;;;;;51.28;33.47;;;1.20;99.90;;;;;;4988009;28;20054;-76
2023/03/10 12:31:06;;;;;;;54.17;35.13;;;1.20;99.90;;;;;;4972403;28;20050;-77
2023/03/10 12:33:41;;;;;;;51.95;33.90;;;1.10;99.90;;;;;;4972582;28;20050;-77
2023/03/10 12:36:30;;;;;;;58.45;35.03;;;1.10;99.90;;;;;;4988023;28;20047;-77
2023/03/10 12:39:20;;;;;;;55.17;34.75;;;1.10;99.90;;;;;;4963439;28;20066;-77
2023/03/10 12:41:51;;;;;;;49.65;32.80;;;1.10;99.90;;;;;;4961985;28;20066;-76
2023/03/10 12:44:52;;;;;;;57.10;35.08;;;1.20;99.90;;;;;;4968879;28;20590;-77
2023/03/10 12:47:47;;;;;;;53.40;33.63;;;1.20;99.90;;;;;;4965277;28;20940;-76
2023/03/10 12:50:23;;;;;;;55.20;34.72;;;1.20;99.90;;;;;;4987929;28;20061;-77
2023/03/10 12:53:15;;;;;;;64.82;36.55;;;1.20;99.90;;;;;;4969329;28;20050;-77